sensor_id;sensor_type;location;lat;lon;timestamp;P1;durP1;ratioP1;P2;durP2;ratioP2
2434;SDS011;1228;51.022;6.764;2022-12-17T00:00:09;21.30;;;14.40;;
2434;SDS011;1228;51.022;6.764;2022-12-17T00:02:57;23.97;;;12.67;;
2434;SDS011;1228;51.022;6.764;2022-12-17T00:05:42;32.23;;;10.73;;
2434;SDS011;1228;51.022;6.764;2022-12-17T00:08:26;35.97;;;14.13;;
2434;SDS011;1228;51.022;6.764;2022-12-17T00:11:10;22.97;;;14.23;;
2434;SDS011;1228;51.022;6.764;2022-12-17T00:13:54;33.23;;;15.67;;
2434;SDS011;1228;51.022;6.764;2022-12-17T00:16:38;30.57;;;14.77;;
2434;SDS011;1228;51.022;6.764;2022-12-17T00:19:22;20.53;;;13.57;;
2434;SDS011;1228;51.022;6.764;2022-12-17T00:22:11;18.03;;;12.00;;
2434;SDS011;1228;51.022;6.764;2022-12-17T00:24:55;23.80;;;13.13;;
2434;SDS011;1228;51.022;6.764;2022-12-17T00:27:39;15.13;;;11.67;;
2434;SDS011;1228;51.022;6.764;2022-12-17T00:30:23;18.33;;;12.67;;
2434;SDS011;1228;51.022;6.764;2022-12-17T00:33:07;24.13;;;10.00;;
2434;SDS011;1228;51.022;6.764;2022-12-17T00:35:51;18.57;;;11.93;;
2434;SDS011;1228;51.022;6.764;2022-12-17T00:38:36;27.90;;;11.57;;
2434;SDS011;1228;51.022;6.764;2022-12-17T00:41:21;23.77;;;12.93;;
2434;SDS011;1228;51.022;6.764;2022-12-17T00:44:05;14.47;;;10.87;;
2434;SDS011;1228;51.022;6.764;2022-12-17T00:46:50;15.57;;;11.23;;
2434;SDS011;1228;51.022;6.764;2022-12-17T00:49:34;15.60;;;10.70;;
2434;SDS011;1228;51.022;6.764;2022-12-17T00:52:18;25.30;;;10.60;;
2434;SDS011;1228;51.022;6.764;2022-12-17T00:55:02;17.10;;;11.77;;
2434;SDS011;1228;51.022;6.764;2022-12-17T00:57:51;13.10;;;11.60;;
2434;SDS011;1228;51.022;6.764;2022-12-17T01:00:39;16.00;;;10.77;;
2434;SDS011;1228;51.022;6.764;2022-12-17T01:03:23;17.80;;;10.20;;
2434;SDS011;1228;51.022;6.764;2022-12-17T01:06:07;13.67;;;11.33;;
2434;SDS011;1228;51.022;6.764;2022-12-17T01:08:52;18.97;;;11.97;;
2434;SDS011;1228;51.022;6.764;2022-12-17T01:11:36;20.53;;;12.23;;
2434;SDS011;1228;51.022;6.764;2022-12-17T01:14:21;20.47;;;12.77;;
2434;SDS011;1228;51.022;6.764;2022-12-17T01:17:06;25.57;;;11.77;;
2434;SDS011;1228;51.022;6.764;2022-12-17T01:19:50;14.53;;;12.13;;
2434;SDS011;1228;51.022;6.764;2022-12-17T01:22:34;17.40;;;13.17;;
2434;SDS011;1228;51.022;6.764;2022-12-17T01:25:18;17.30;;;11.60;;
2434;SDS011;1228;51.022;6.764;2022-12-17T01:28:02;17.33;;;13.23;;
2434;SDS011;1228;51.022;6.764;2022-12-17T01:30:48;17.20;;;10.67;;
2434;SDS011;1228;51.022;6.764;2022-12-17T01:33:33;17.27;;;12.73;;
2434;SDS011;1228;51.022;6.764;2022-12-17T01:36:17;19.97;;;12.17;;
2434;SDS011;1228;51.022;6.764;2022-12-17T01:39:02;17.80;;;12.03;;
2434;SDS011;1228;51.022;6.764;2022-12-17T01:41:46;19.63;;;11.77;;
2434;SDS011;1228;51.022;6.764;2022-12-17T01:50:25;16.40;;;11.60;;
2434;SDS011;1228;51.022;6.764;2022-12-17T01:53:13;13.57;;;12.10;;
2434;SDS011;1228;51.022;6.764;2022-12-17T01:56:00;19.03;;;12.27;;
2434;SDS011;1228;51.022;6.764;2022-12-17T01:58:46;19.20;;;11.33;;
2434;SDS011;1228;51.022;6.764;2022-12-17T02:01:34;16.20;;;11.23;;
2434;SDS011;1228;51.022;6.764;2022-12-17T02:04:19;13.83;;;12.03;;
2434;SDS011;1228;51.022;6.764;2022-12-17T02:13:23;15.43;;;11.13;;
2434;SDS011;1228;51.022;6.764;2022-12-17T02:16:18;24.93;;;10.63;;
2434;SDS011;1228;51.022;6.764;2022-12-17T02:19:50;17.50;;;13.83;;
2434;SDS011;1228;51.022;6.764;2022-12-17T02:25:52;13.67;;;10.87;;
2434;SDS011;1228;51.022;6.764;2022-12-17T02:28:38;13.83;;;10.47;;
2434;SDS011;1228;51.022;6.764;2022-12-17T02:31:25;28.00;;;12.40;;
2434;SDS011;1228;51.022;6.764;2022-12-17T02:34:12;28.10;;;11.73;;
2434;SDS011;1228;51.022;6.764;2022-12-17T02:36:56;19.13;;;12.00;;
2434;SDS011;1228;51.022;6.764;2022-12-17T02:39:41;15.27;;;9.97;;
2434;SDS011;1228;51.022;6.764;2022-12-17T02:42:25;15.13;;;11.40;;
2434;SDS011;1228;51.022;6.764;2022-12-17T02:45:13;21.90;;;13.43;;
2434;SDS011;1228;51.022;6.764;2022-12-17T02:47:58;18.70;;;11.70;;
2434;SDS011;1228;51.022;6.764;2022-12-17T02:50:44;25.67;;;12.30;;
2434;SDS011;1228;51.022;6.764;2022-12-17T02:53:31;15.00;;;10.67;;
2434;SDS011;1228;51.022;6.764;2022-12-17T02:56:16;14.63;;;12.03;;
2434;SDS011;1228;51.022;6.764;2022-12-17T02:59:00;19.40;;;11.97;;
2434;SDS011;1228;51.022;6.764;2022-12-17T03:01:44;27.87;;;13.63;;
2434;SDS011;1228;51.022;6.764;2022-12-17T03:04:28;29.43;;;14.47;;
2434;SDS011;1228;51.022;6.764;2022-12-17T03:07:12;17.93;;;10.50;;
2434;SDS011;1228;51.022;6.764;2022-12-17T03:09:56;19.77;;;13.10;;
2434;SDS011;1228;51.022;6.764;2022-12-17T03:12:40;23.40;;;12.47;;
2434;SDS011;1228;51.022;6.764;2022-12-17T03:15:24;17.77;;;11.77;;
2434;SDS011;1228;51.022;6.764;2022-12-17T03:18:08;14.57;;;12.93;;
2434;SDS011;1228;51.022;6.764;2022-12-17T03:20:52;15.63;;;12.13;;
2434;SDS011;1228;51.022;6.764;2022-12-17T03:23:36;21.83;;;11.27;;
2434;SDS011;1228;51.022;6.764;2022-12-17T03:26:20;14.40;;;11.57;;
2434;SDS011;1228;51.022;6.764;2022-12-17T03:29:04;20.40;;;11.57;;
2434;SDS011;1228;51.022;6.764;2022-12-17T03:31:49;16.77;;;12.37;;
2434;SDS011;1228;51.022;6.764;2022-12-17T03:34:34;12.93;;;10.97;;
2434;SDS011;1228;51.022;6.764;2022-12-17T03:37:18;13.13;;;10.57;;
2434;SDS011;1228;51.022;6.764;2022-12-17T03:40:02;24.93;;;13.33;;
2434;SDS011;1228;51.022;6.764;2022-12-17T03:42:54;13.13;;;11.53;;
2434;SDS011;1228;51.022;6.764;2022-12-17T03:45:38;12.27;;;10.60;;
2434;SDS011;1228;51.022;6.764;2022-12-17T03:48:22;14.67;;;11.77;;
2434;SDS011;1228;51.022;6.764;2022-12-17T03:51:06;13.97;;;11.33;;
2434;SDS011;1228;51.022;6.764;2022-12-17T03:53:50;12.47;;;10.27;;
2434;SDS011;1228;51.022;6.764;2022-12-17T03:56:34;19.00;;;12.60;;
2434;SDS011;1228;51.022;6.764;2022-12-17T03:59:18;22.00;;;13.93;;
2434;SDS011;1228;51.022;6.764;2022-12-17T04:02:02;16.37;;;11.67;;
2434;SDS011;1228;51.022;6.764;2022-12-17T04:04:46;25.70;;;13.20;;
2434;SDS011;1228;51.022;6.764;2022-12-17T04:07:30;29.40;;;11.60;;
2434;SDS011;1228;51.022;6.764;2022-12-17T04:10:14;10.67;;;9.70;;
2434;SDS011;1228;51.022;6.764;2022-12-17T04:12:58;18.00;;;12.50;;
2434;SDS011;1228;51.022;6.764;2022-12-17T04:15:43;24.97;;;12.57;;
2434;SDS011;1228;51.022;6.764;2022-12-17T04:18:27;17.37;;;13.13;;
2434;SDS011;1228;51.022;6.764;2022-12-17T04:21:21;12.57;;;10.73;;
2434;SDS011;1228;51.022;6.764;2022-12-17T04:24:06;12.17;;;11.07;;
2434;SDS011;1228;51.022;6.764;2022-12-17T04:26:50;23.87;;;11.03;;
2434;SDS011;1228;51.022;6.764;2022-12-17T04:29:34;16.70;;;12.60;;
2434;SDS011;1228;51.022;6.764;2022-12-17T04:32:18;15.20;;;12.23;;
2434;SDS011;1228;51.022;6.764;2022-12-17T04:35:09;14.00;;;12.63;;
2434;SDS011;1228;51.022;6.764;2022-12-17T04:37:54;22.80;;;13.80;;
2434;SDS011;1228;51.022;6.764;2022-12-17T04:40:38;25.93;;;12.80;;
2434;SDS011;1228;51.022;6.764;2022-12-17T04:43:22;21.10;;;12.80;;
2434;SDS011;1228;51.022;6.764;2022-12-17T04:46:06;17.87;;;10.93;;
2434;SDS011;1228;51.022;6.764;2022-12-17T04:48:50;19.63;;;12.53;;
2434;SDS011;1228;51.022;6.764;2022-12-17T04:51:41;23.83;;;11.20;;
2434;SDS011;1228;51.022;6.764;2022-12-17T04:54:26;14.67;;;10.37;;
2434;SDS011;1228;51.022;6.764;2022-12-17T04:57:10;13.70;;;10.70;;
2434;SDS011;1228;51.022;6.764;2022-12-17T04:59:54;11.23;;;10.10;;
2434;SDS011;1228;51.022;6.764;2022-12-17T05:02:38;24.80;;;13.30;;
2434;SDS011;1228;51.022;6.764;2022-12-17T05:05:22;18.03;;;11.53;;
2434;SDS011;1228;51.022;6.764;2022-12-17T05:08:25;9.90;;;9.13;;
2434;SDS011;1228;51.022;6.764;2022-12-17T05:11:09;19.27;;;10.37;;
2434;SDS011;1228;51.022;6.764;2022-12-17T05:13:54;12.27;;;11.13;;
2434;SDS011;1228;51.022;6.764;2022-12-17T05:16:38;12.27;;;10.53;;
2434;SDS011;1228;51.022;6.764;2022-12-17T05:19:22;20.00;;;12.33;;
2434;SDS011;1228;51.022;6.764;2022-12-17T05:22:06;19.53;;;12.70;;
2434;SDS011;1228;51.022;6.764;2022-12-17T05:24:50;18.30;;;11.10;;
2434;SDS011;1228;51.022;6.764;2022-12-17T05:27:34;13.90;;;11.43;;
2434;SDS011;1228;51.022;6.764;2022-12-17T05:30:18;15.63;;;10.17;;
2434;SDS011;1228;51.022;6.764;2022-12-17T05:33:02;16.57;;;13.07;;
2434;SDS011;1228;51.022;6.764;2022-12-17T05:35:46;12.47;;;11.37;;
2434;SDS011;1228;51.022;6.764;2022-12-17T05:38:31;16.30;;;11.23;;
2434;SDS011;1228;51.022;6.764;2022-12-17T05:41:15;16.93;;;11.40;;
2434;SDS011;1228;51.022;6.764;2022-12-17T05:43:59;18.23;;;11.43;;
2434;SDS011;1228;51.022;6.764;2022-12-17T05:46:43;11.67;;;9.67;;
2434;SDS011;1228;51.022;6.764;2022-12-17T05:49:27;15.00;;;11.23;;
2434;SDS011;1228;51.022;6.764;2022-12-17T05:52:11;17.90;;;11.43;;
2434;SDS011;1228;51.022;6.764;2022-12-17T05:54:55;21.87;;;11.23;;
2434;SDS011;1228;51.022;6.764;2022-12-17T05:57:39;16.47;;;11.57;;
2434;SDS011;1228;51.022;6.764;2022-12-17T06:00:23;12.30;;;10.10;;
2434;SDS011;1228;51.022;6.764;2022-12-17T06:03:08;15.80;;;10.60;;
2434;SDS011;1228;51.022;6.764;2022-12-17T06:05:53;9.47;;;8.77;;
2434;SDS011;1228;51.022;6.764;2022-12-17T06:08:38;17.13;;;11.77;;
2434;SDS011;1228;51.022;6.764;2022-12-17T06:11:22;14.67;;;11.87;;
2434;SDS011;1228;51.022;6.764;2022-12-17T06:14:06;23.33;;;11.27;;
2434;SDS011;1228;51.022;6.764;2022-12-17T06:16:50;16.17;;;10.90;;
2434;SDS011;1228;51.022;6.764;2022-12-17T06:19:34;14.53;;;12.50;;
2434;SDS011;1228;51.022;6.764;2022-12-17T06:22:18;16.07;;;13.10;;
2434;SDS011;1228;51.022;6.764;2022-12-17T06:25:02;12.73;;;11.50;;
2434;SDS011;1228;51.022;6.764;2022-12-17T06:27:46;15.47;;;13.53;;
2434;SDS011;1228;51.022;6.764;2022-12-17T06:30:30;14.70;;;13.17;;
2434;SDS011;1228;51.022;6.764;2022-12-17T06:33:14;28.47;;;11.07;;
2434;SDS011;1228;51.022;6.764;2022-12-17T06:35:58;14.33;;;12.57;;
2434;SDS011;1228;51.022;6.764;2022-12-17T06:38:42;11.97;;;10.80;;
2434;SDS011;1228;51.022;6.764;2022-12-17T06:41:26;21.03;;;10.67;;
2434;SDS011;1228;51.022;6.764;2022-12-17T06:44:11;10.97;;;10.03;;
2434;SDS011;1228;51.022;6.764;2022-12-17T06:46:55;14.13;;;9.30;;
2434;SDS011;1228;51.022;6.764;2022-12-17T06:49:39;12.53;;;11.17;;
2434;SDS011;1228;51.022;6.764;2022-12-17T06:52:23;11.40;;;10.27;;
2434;SDS011;1228;51.022;6.764;2022-12-17T06:55:08;13.97;;;9.40;;
2434;SDS011;1228;51.022;6.764;2022-12-17T06:57:56;12.83;;;10.27;;
2434;SDS011;1228;51.022;6.764;2022-12-17T07:00:41;12.83;;;11.53;;
2434;SDS011;1228;51.022;6.764;2022-12-17T07:03:25;11.53;;;9.83;;
2434;SDS011;1228;51.022;6.764;2022-12-17T07:06:09;15.13;;;12.03;;
2434;SDS011;1228;51.022;6.764;2022-12-17T07:08:53;14.97;;;9.30;;
2434;SDS011;1228;51.022;6.764;2022-12-17T07:11:37;19.27;;;9.77;;
2434;SDS011;1228;51.022;6.764;2022-12-17T07:14:31;12.03;;;11.13;;
2434;SDS011;1228;51.022;6.764;2022-12-17T07:17:16;10.37;;;9.33;;
2434;SDS011;1228;51.022;6.764;2022-12-17T07:20:00;11.03;;;9.97;;
2434;SDS011;1228;51.022;6.764;2022-12-17T07:22:44;16.70;;;10.97;;
2434;SDS011;1228;51.022;6.764;2022-12-17T07:25:28;12.03;;;10.03;;
2434;SDS011;1228;51.022;6.764;2022-12-17T07:28:13;13.80;;;10.17;;
2434;SDS011;1228;51.022;6.764;2022-12-17T07:30:57;10.40;;;8.93;;
2434;SDS011;1228;51.022;6.764;2022-12-17T07:33:41;13.43;;;8.77;;
2434;SDS011;1228;51.022;6.764;2022-12-17T07:36:25;11.80;;;10.87;;
2434;SDS011;1228;51.022;6.764;2022-12-17T07:39:09;27.20;;;12.23;;
2434;SDS011;1228;51.022;6.764;2022-12-17T07:41:54;11.37;;;10.47;;
2434;SDS011;1228;51.022;6.764;2022-12-17T07:44:38;11.53;;;10.60;;
2434;SDS011;1228;51.022;6.764;2022-12-17T07:47:22;19.03;;;10.67;;
2434;SDS011;1228;51.022;6.764;2022-12-17T07:50:06;22.43;;;10.33;;
2434;SDS011;1228;51.022;6.764;2022-12-17T07:52:57;12.23;;;11.10;;
2434;SDS011;1228;51.022;6.764;2022-12-17T07:55:45;12.57;;;10.10;;
2434;SDS011;1228;51.022;6.764;2022-12-17T07:58:30;12.27;;;10.23;;
2434;SDS011;1228;51.022;6.764;2022-12-17T08:01:14;10.87;;;9.77;;
2434;SDS011;1228;51.022;6.764;2022-12-17T08:03:58;16.97;;;9.50;;
2434;SDS011;1228;51.022;6.764;2022-12-17T08:06:42;18.63;;;10.27;;
2434;SDS011;1228;51.022;6.764;2022-12-17T08:09:26;21.90;;;13.37;;
2434;SDS011;1228;51.022;6.764;2022-12-17T08:12:10;12.90;;;11.27;;
2434;SDS011;1228;51.022;6.764;2022-12-17T08:14:54;22.70;;;12.60;;
2434;SDS011;1228;51.022;6.764;2022-12-17T08:17:38;13.00;;;9.40;;
2434;SDS011;1228;51.022;6.764;2022-12-17T08:20:22;10.87;;;10.03;;
2434;SDS011;1228;51.022;6.764;2022-12-17T08:23:06;12.27;;;11.13;;
2434;SDS011;1228;51.022;6.764;2022-12-17T08:25:50;12.90;;;11.80;;
2434;SDS011;1228;51.022;6.764;2022-12-17T08:28:54;10.33;;;9.47;;
2434;SDS011;1228;51.022;6.764;2022-12-17T08:31:38;11.17;;;10.30;;
2434;SDS011;1228;51.022;6.764;2022-12-17T08:34:22;10.60;;;9.67;;
2434;SDS011;1228;51.022;6.764;2022-12-17T08:37:06;10.93;;;10.03;;
2434;SDS011;1228;51.022;6.764;2022-12-17T08:39:50;23.73;;;10.30;;
2434;SDS011;1228;51.022;6.764;2022-12-17T08:42:34;12.70;;;11.60;;
2434;SDS011;1228;51.022;6.764;2022-12-17T08:45:18;21.43;;;12.27;;
2434;SDS011;1228;51.022;6.764;2022-12-17T08:48:03;11.83;;;10.70;;
2434;SDS011;1228;51.022;6.764;2022-12-17T08:50:49;15.33;;;10.90;;
2434;SDS011;1228;51.022;6.764;2022-12-17T08:53:33;13.07;;;10.60;;
2434;SDS011;1228;51.022;6.764;2022-12-17T08:56:17;14.53;;;10.43;;
2434;SDS011;1228;51.022;6.764;2022-12-17T08:59:01;11.63;;;10.63;;
2434;SDS011;1228;51.022;6.764;2022-12-17T09:01:45;10.60;;;9.80;;
2434;SDS011;1228;51.022;6.764;2022-12-17T09:04:29;18.67;;;12.67;;
2434;SDS011;1228;51.022;6.764;2022-12-17T09:07:13;10.70;;;9.60;;
2434;SDS011;1228;51.022;6.764;2022-12-17T09:09:57;9.97;;;9.03;;
2434;SDS011;1228;51.022;6.764;2022-12-17T09:12:41;14.77;;;10.33;;
2434;SDS011;1228;51.022;6.764;2022-12-17T09:15:25;13.03;;;11.23;;
2434;SDS011;1228;51.022;6.764;2022-12-17T09:18:09;12.50;;;11.27;;
2434;SDS011;1228;51.022;6.764;2022-12-17T09:20:53;9.43;;;8.57;;
2434;SDS011;1228;51.022;6.764;2022-12-17T09:23:38;10.93;;;9.97;;
2434;SDS011;1228;51.022;6.764;2022-12-17T09:26:22;12.40;;;9.53;;
2434;SDS011;1228;51.022;6.764;2022-12-17T09:29:06;10.17;;;9.27;;
2434;SDS011;1228;51.022;6.764;2022-12-17T09:31:50;14.77;;;9.47;;
2434;SDS011;1228;51.022;6.764;2022-12-17T09:34:34;9.57;;;8.97;;
2434;SDS011;1228;51.022;6.764;2022-12-17T09:37:18;22.53;;;9.93;;
2434;SDS011;1228;51.022;6.764;2022-12-17T09:40:02;19.10;;;10.70;;
2434;SDS011;1228;51.022;6.764;2022-12-17T09:42:48;9.90;;;9.00;;
2434;SDS011;1228;51.022;6.764;2022-12-17T09:45:43;9.97;;;9.47;;
2434;SDS011;1228;51.022;6.764;2022-12-17T09:51:42;9.77;;;8.93;;
2434;SDS011;1228;51.022;6.764;2022-12-17T09:57:23;11.97;;;10.00;;
2434;SDS011;1228;51.022;6.764;2022-12-17T10:00:16;10.50;;;9.63;;
2434;SDS011;1228;51.022;6.764;2022-12-17T10:03:09;11.73;;;10.67;;
2434;SDS011;1228;51.022;6.764;2022-12-17T10:05:56;12.30;;;9.60;;
2434;SDS011;1228;51.022;6.764;2022-12-17T10:08:44;10.63;;;9.33;;
2434;SDS011;1228;51.022;6.764;2022-12-17T10:11:30;10.60;;;10.00;;
2434;SDS011;1228;51.022;6.764;2022-12-17T10:14:16;10.87;;;10.13;;
2434;SDS011;1228;51.022;6.764;2022-12-17T10:17:02;11.90;;;10.93;;
2434;SDS011;1228;51.022;6.764;2022-12-17T10:19:48;9.73;;;9.00;;
2434;SDS011;1228;51.022;6.764;2022-12-17T10:22:43;10.30;;;9.57;;
2434;SDS011;1228;51.022;6.764;2022-12-17T10:25:29;13.33;;;9.10;;
2434;SDS011;1228;51.022;6.764;2022-12-17T10:28:17;11.10;;;10.03;;
2434;SDS011;1228;51.022;6.764;2022-12-17T10:31:21;18.33;;;9.30;;
2434;SDS011;1228;51.022;6.764;2022-12-17T10:34:16;9.67;;;9.07;;
2434;SDS011;1228;51.022;6.764;2022-12-17T10:37:17;9.40;;;8.77;;
2434;SDS011;1228;51.022;6.764;2022-12-17T10:40:02;24.47;;;11.37;;
2434;SDS011;1228;51.022;6.764;2022-12-17T10:43:01;13.93;;;10.33;;
2434;SDS011;1228;51.022;6.764;2022-12-17T10:45:51;8.80;;;8.30;;
2434;SDS011;1228;51.022;6.764;2022-12-17T10:48:38;12.30;;;11.30;;
2434;SDS011;1228;51.022;6.764;2022-12-17T10:51:31;9.60;;;8.80;;
2434;SDS011;1228;51.022;6.764;2022-12-17T10:57:18;11.23;;;10.23;;
2434;SDS011;1228;51.022;6.764;2022-12-17T11:06:14;9.83;;;9.10;;
2434;SDS011;1228;51.022;6.764;2022-12-17T11:09:03;11.37;;;10.30;;
2434;SDS011;1228;51.022;6.764;2022-12-17T11:11:47;10.83;;;9.93;;
2434;SDS011;1228;51.022;6.764;2022-12-17T11:14:33;11.77;;;10.53;;
2434;SDS011;1228;51.022;6.764;2022-12-17T11:17:27;13.53;;;10.83;;
2434;SDS011;1228;51.022;6.764;2022-12-17T11:21:14;10.10;;;9.33;;
2434;SDS011;1228;51.022;6.764;2022-12-17T11:23:30;11.67;;;10.53;;
2434;SDS011;1228;51.022;6.764;2022-12-17T11:26:16;12.47;;;10.67;;
2434;SDS011;1228;51.022;6.764;2022-12-17T11:29:02;10.87;;;10.07;;
2434;SDS011;1228;51.022;6.764;2022-12-17T11:31:53;15.17;;;10.57;;
2434;SDS011;1228;51.022;6.764;2022-12-17T11:37:59;10.13;;;9.23;;
2434;SDS011;1228;51.022;6.764;2022-12-17T11:44:15;10.60;;;9.50;;
2434;SDS011;1228;51.022;6.764;2022-12-17T11:47:16;11.13;;;10.43;;
2434;SDS011;1228;51.022;6.764;2022-12-17T11:50:15;10.50;;;9.60;;
2434;SDS011;1228;51.022;6.764;2022-12-17T11:53:05;11.97;;;10.80;;
2434;SDS011;1228;51.022;6.764;2022-12-17T11:56:22;10.60;;;9.30;;
2434;SDS011;1228;51.022;6.764;2022-12-17T11:59:43;10.90;;;10.00;;
2434;SDS011;1228;51.022;6.764;2022-12-17T12:08:30;13.43;;;12.17;;
2434;SDS011;1228;51.022;6.764;2022-12-17T12:11:37;10.20;;;9.50;;
2434;SDS011;1228;51.022;6.764;2022-12-17T12:20:51;10.37;;;9.70;;
2434;SDS011;1228;51.022;6.764;2022-12-17T12:26:55;9.70;;;8.80;;
2434;SDS011;1228;51.022;6.764;2022-12-17T12:29:55;12.10;;;10.93;;
2434;SDS011;1228;51.022;6.764;2022-12-17T12:36:07;11.07;;;10.03;;
2434;SDS011;1228;51.022;6.764;2022-12-17T12:38:55;13.20;;;10.87;;
2434;SDS011;1228;51.022;6.764;2022-12-17T12:53:55;13.73;;;10.37;;
2434;SDS011;1228;51.022;6.764;2022-12-17T12:56:40;9.50;;;8.90;;
2434;SDS011;1228;51.022;6.764;2022-12-17T12:59:25;10.57;;;9.77;;
2434;SDS011;1228;51.022;6.764;2022-12-17T13:02:27;10.30;;;9.60;;
2434;SDS011;1228;51.022;6.764;2022-12-17T13:08:01;15.80;;;11.57;;
2434;SDS011;1228;51.022;6.764;2022-12-17T13:10:28;11.50;;;10.30;;
2434;SDS011;1228;51.022;6.764;2022-12-17T13:12:54;9.77;;;9.10;;
2434;SDS011;1228;51.022;6.764;2022-12-17T13:15:35;14.87;;;11.63;;
2434;SDS011;1228;51.022;6.764;2022-12-17T13:18:47;12.93;;;10.37;;
2434;SDS011;1228;51.022;6.764;2022-12-17T13:23:34;11.10;;;10.23;;
2434;SDS011;1228;51.022;6.764;2022-12-17T13:31:20;18.33;;;13.37;;
2434;SDS011;1228;51.022;6.764;2022-12-17T13:33:52;15.70;;;10.70;;
2434;SDS011;1228;51.022;6.764;2022-12-17T13:36:26;11.37;;;10.43;;
2434;SDS011;1228;51.022;6.764;2022-12-17T13:41:41;14.93;;;11.17;;
2434;SDS011;1228;51.022;6.764;2022-12-17T13:44:19;11.67;;;10.20;;
2434;SDS011;1228;51.022;6.764;2022-12-17T13:46:48;14.80;;;10.70;;
2434;SDS011;1228;51.022;6.764;2022-12-17T13:49:16;16.00;;;10.60;;
2434;SDS011;1228;51.022;6.764;2022-12-17T13:54:45;16.10;;;14.47;;
2434;SDS011;1228;51.022;6.764;2022-12-17T13:57:15;11.30;;;9.70;;
2434;SDS011;1228;51.022;6.764;2022-12-17T13:59:53;12.10;;;10.93;;
2434;SDS011;1228;51.022;6.764;2022-12-17T14:04:56;10.27;;;9.27;;
2434;SDS011;1228;51.022;6.764;2022-12-17T14:07:23;14.03;;;10.33;;
2434;SDS011;1228;51.022;6.764;2022-12-17T14:09:50;12.50;;;11.23;;
2434;SDS011;1228;51.022;6.764;2022-12-17T14:12:17;11.43;;;10.50;;
2434;SDS011;1228;51.022;6.764;2022-12-17T14:14:57;13.03;;;11.67;;
2434;SDS011;1228;51.022;6.764;2022-12-17T14:17:34;11.83;;;10.80;;
2434;SDS011;1228;51.022;6.764;2022-12-17T14:23:32;18.20;;;11.40;;
2434;SDS011;1228;51.022;6.764;2022-12-17T14:25:45;9.83;;;9.13;;
2434;SDS011;1228;51.022;6.764;2022-12-17T14:28:23;10.20;;;9.10;;
2434;SDS011;1228;51.022;6.764;2022-12-17T14:31:07;11.93;;;9.60;;
2434;SDS011;1228;51.022;6.764;2022-12-17T14:33:40;12.03;;;10.47;;
2434;SDS011;1228;51.022;6.764;2022-12-17T14:36:07;10.33;;;9.13;;
2434;SDS011;1228;51.022;6.764;2022-12-17T14:39:16;9.53;;;8.60;;
2434;SDS011;1228;51.022;6.764;2022-12-17T14:41:57;14.07;;;9.00;;
2434;SDS011;1228;51.022;6.764;2022-12-17T14:44:56;13.70;;;8.37;;
2434;SDS011;1228;51.022;6.764;2022-12-17T14:47:25;11.80;;;10.93;;
2434;SDS011;1228;51.022;6.764;2022-12-17T14:52:48;9.70;;;8.83;;
2434;SDS011;1228;51.022;6.764;2022-12-17T14:57:52;8.57;;;7.97;;
2434;SDS011;1228;51.022;6.764;2022-12-17T15:00:31;9.37;;;8.63;;
2434;SDS011;1228;51.022;6.764;2022-12-17T15:02:57;9.00;;;8.50;;
2434;SDS011;1228;51.022;6.764;2022-12-17T15:05:23;17.83;;;10.03;;
2434;SDS011;1228;51.022;6.764;2022-12-17T15:07:48;8.53;;;7.93;;
2434;SDS011;1228;51.022;6.764;2022-12-17T15:10:16;12.27;;;9.93;;
2434;SDS011;1228;51.022;6.764;2022-12-17T15:12:44;8.53;;;8.03;;
2434;SDS011;1228;51.022;6.764;2022-12-17T15:15:13;9.87;;;8.67;;
2434;SDS011;1228;51.022;6.764;2022-12-17T15:17:40;9.87;;;9.17;;
2434;SDS011;1228;51.022;6.764;2022-12-17T15:20:06;11.17;;;9.43;;
2434;SDS011;1228;51.022;6.764;2022-12-17T15:22:36;10.67;;;9.73;;
2434;SDS011;1228;51.022;6.764;2022-12-17T15:25:03;12.43;;;10.00;;
2434;SDS011;1228;51.022;6.764;2022-12-17T15:27:28;11.60;;;10.67;;
2434;SDS011;1228;51.022;6.764;2022-12-17T15:29:54;10.87;;;10.07;;
2434;SDS011;1228;51.022;6.764;2022-12-17T15:32:20;9.80;;;9.30;;
2434;SDS011;1228;51.022;6.764;2022-12-17T15:34:47;11.50;;;10.77;;
2434;SDS011;1228;51.022;6.764;2022-12-17T15:37:14;9.80;;;9.23;;
2434;SDS011;1228;51.022;6.764;2022-12-17T15:39:41;10.87;;;8.67;;
2434;SDS011;1228;51.022;6.764;2022-12-17T15:42:07;10.93;;;10.20;;
2434;SDS011;1228;51.022;6.764;2022-12-17T15:44:52;9.20;;;8.43;;
2434;SDS011;1228;51.022;6.764;2022-12-17T15:47:18;10.93;;;9.93;;
2434;SDS011;1228;51.022;6.764;2022-12-17T15:49:44;10.77;;;9.83;;
2434;SDS011;1228;51.022;6.764;2022-12-17T15:52:09;9.60;;;9.03;;
2434;SDS011;1228;51.022;6.764;2022-12-17T15:54:39;10.33;;;9.63;;
2434;SDS011;1228;51.022;6.764;2022-12-17T15:57:07;10.00;;;9.17;;
2434;SDS011;1228;51.022;6.764;2022-12-17T15:59:33;11.63;;;10.43;;
2434;SDS011;1228;51.022;6.764;2022-12-17T16:01:59;9.37;;;8.80;;
2434;SDS011;1228;51.022;6.764;2022-12-17T16:04:25;10.13;;;9.47;;
2434;SDS011;1228;51.022;6.764;2022-12-17T16:06:50;13.83;;;11.30;;
2434;SDS011;1228;51.022;6.764;2022-12-17T16:09:16;11.20;;;10.37;;
2434;SDS011;1228;51.022;6.764;2022-12-17T16:11:41;12.10;;;10.87;;
2434;SDS011;1228;51.022;6.764;2022-12-17T16:14:07;12.37;;;11.00;;
2434;SDS011;1228;51.022;6.764;2022-12-17T16:16:33;10.40;;;9.60;;
2434;SDS011;1228;51.022;6.764;2022-12-17T16:18:58;18.33;;;11.50;;
2434;SDS011;1228;51.022;6.764;2022-12-17T16:21:26;14.40;;;9.23;;
2434;SDS011;1228;51.022;6.764;2022-12-17T16:23:51;10.77;;;10.00;;
2434;SDS011;1228;51.022;6.764;2022-12-17T16:26:17;14.27;;;11.60;;
2434;SDS011;1228;51.022;6.764;2022-12-17T16:28:43;10.53;;;9.67;;
2434;SDS011;1228;51.022;6.764;2022-12-17T16:31:12;10.17;;;9.47;;
2434;SDS011;1228;51.022;6.764;2022-12-17T16:33:39;11.10;;;10.30;;
2434;SDS011;1228;51.022;6.764;2022-12-17T16:36:07;11.23;;;10.50;;
2434;SDS011;1228;51.022;6.764;2022-12-17T16:38:40;9.73;;;9.30;;
2434;SDS011;1228;51.022;6.764;2022-12-17T16:41:09;13.33;;;11.57;;
2434;SDS011;1228;51.022;6.764;2022-12-17T16:43:34;12.80;;;11.67;;
2434;SDS011;1228;51.022;6.764;2022-12-17T16:46:00;14.50;;;13.33;;
2434;SDS011;1228;51.022;6.764;2022-12-17T16:48:26;12.93;;;11.93;;
2434;SDS011;1228;51.022;6.764;2022-12-17T16:50:51;12.80;;;11.90;;
2434;SDS011;1228;51.022;6.764;2022-12-17T16:53:17;18.07;;;13.73;;
2434;SDS011;1228;51.022;6.764;2022-12-17T16:55:47;16.07;;;14.77;;
2434;SDS011;1228;51.022;6.764;2022-12-17T16:58:16;12.97;;;12.17;;
2434;SDS011;1228;51.022;6.764;2022-12-17T17:00:42;12.70;;;12.00;;
2434;SDS011;1228;51.022;6.764;2022-12-17T17:03:10;14.10;;;13.00;;
2434;SDS011;1228;51.022;6.764;2022-12-17T17:05:36;13.30;;;12.47;;
2434;SDS011;1228;51.022;6.764;2022-12-17T17:08:03;13.60;;;12.03;;
2434;SDS011;1228;51.022;6.764;2022-12-17T17:10:29;13.37;;;12.37;;
2434;SDS011;1228;51.022;6.764;2022-12-17T17:12:56;16.43;;;15.33;;
2434;SDS011;1228;51.022;6.764;2022-12-17T17:15:22;18.27;;;15.80;;
2434;SDS011;1228;51.022;6.764;2022-12-17T17:17:48;17.77;;;15.10;;
2434;SDS011;1228;51.022;6.764;2022-12-17T17:20:13;12.83;;;12.00;;
2434;SDS011;1228;51.022;6.764;2022-12-17T17:22:40;15.37;;;14.40;;
2434;SDS011;1228;51.022;6.764;2022-12-17T17:25:05;16.63;;;15.00;;
2434;SDS011;1228;51.022;6.764;2022-12-17T17:27:31;17.57;;;15.37;;
2434;SDS011;1228;51.022;6.764;2022-12-17T17:29:57;23.77;;;16.03;;
2434;SDS011;1228;51.022;6.764;2022-12-17T17:32:23;20.37;;;18.37;;
2434;SDS011;1228;51.022;6.764;2022-12-17T17:34:49;19.83;;;18.50;;
2434;SDS011;1228;51.022;6.764;2022-12-17T17:37:14;18.60;;;15.93;;
2434;SDS011;1228;51.022;6.764;2022-12-17T17:39:40;14.90;;;13.57;;
2434;SDS011;1228;51.022;6.764;2022-12-17T17:42:06;16.03;;;13.07;;
2434;SDS011;1228;51.022;6.764;2022-12-17T17:44:32;13.23;;;12.20;;
2434;SDS011;1228;51.022;6.764;2022-12-17T17:46:58;10.53;;;9.67;;
2434;SDS011;1228;51.022;6.764;2022-12-17T17:49:23;11.67;;;10.70;;
2434;SDS011;1228;51.022;6.764;2022-12-17T17:51:49;11.70;;;11.10;;
2434;SDS011;1228;51.022;6.764;2022-12-17T17:54:14;11.67;;;10.17;;